Terminal Aerodrome Forecast
Issued by NWS Melbourne, FL

Home | Current Version | Previous Version | Text Only | Print | Product List | Glossary On
Versions: 1 2 3 4 5 6 7 8 9 10 11 12
000
FTUS42 KMLB 231100 RRA
TAFVRB
TAF
KVRB 231145Z 2312/2412 15014G20KT P6SM SCT012 BKN030 OVC060
     FM231400 15015G23KT P6SM BKN022
     FM231700 15016G23KT P6SM VCSH BKN035 BKN060
     FM240200 15009KT P6SM BKN040
     FM240600 18006KT 5SM BR OVC008=

USA.gov is the U.S. government's official web portal to all federal, state and local government web resources and services.